createdAt,value
2018-05-11T00:02:11.790Z,76.70
2018-05-11T00:04:39.250Z,76.70
2018-05-11T00:07:06.691Z,76.90
2018-05-11T00:09:34.163Z,77.10
2018-05-11T00:12:01.614Z,77.00
2018-05-11T00:14:29.090Z,77.20
2018-05-11T00:16:56.583Z,77.10
2018-05-11T00:19:24.038Z,77.20
2018-05-11T00:21:51.502Z,78.10
2018-05-11T00:24:19.730Z,77.50
2018-05-11T00:26:47.177Z,77.50
2018-05-11T00:29:14.680Z,77.50
2018-05-11T00:31:42.125Z,77.30
2018-05-11T00:34:09.582Z,77.40
2018-05-11T00:36:37.040Z,77.40
2018-05-11T00:39:04.508Z,77.40
2018-05-11T00:41:31.963Z,77.50
2018-05-11T00:43:59.455Z,77.60
2018-05-11T00:46:27.661Z,77.70
2018-05-11T00:48:55.122Z,77.60
2018-05-11T00:51:22.584Z,77.90
2018-05-11T00:53:50.047Z,77.90
2018-05-11T00:56:17.498Z,77.80
2018-05-11T00:58:44.977Z,77.80
2018-05-11T01:01:12.430Z,77.90
2018-05-11T01:03:39.898Z,77.80
2018-05-11T01:06:07.354Z,78.00
2018-05-11T01:08:34.842Z,78.00
2018-05-11T01:11:02.305Z,77.90
2018-05-11T01:13:29.771Z,77.90
2018-05-11T01:15:57.230Z,77.90
2018-05-11T01:18:24.691Z,77.90
2018-05-11T01:20:52.142Z,77.90
2018-05-11T01:23:19.607Z,77.90
2018-05-11T01:25:47.061Z,77.90
2018-05-11T01:28:14.533Z,78.00
2018-05-11T01:30:41.990Z,78.00
2018-05-11T01:33:10.230Z,78.10
2018-05-11T01:35:37.681Z,78.00
2018-05-11T01:38:05.153Z,78.20
2018-05-11T01:40:32.610Z,78.10
2018-05-11T01:43:00.051Z,78.30
2018-05-11T01:45:27.519Z,78.30
2018-05-11T01:47:54.967Z,78.60
2018-05-11T01:50:22.430Z,78.60
2018-05-11T01:52:49.871Z,78.70
2018-05-11T01:55:18.112Z,78.70
2018-05-11T01:57:45.556Z,78.70
2018-05-11T02:00:13.045Z,78.70
2018-05-11T02:02:40.496Z,78.70
2018-05-11T02:05:07.962Z,78.80
2018-05-11T02:07:36.189Z,80.50
2018-05-11T02:10:03.646Z,79.80
2018-05-11T02:12:31.198Z,79.90
2018-05-11T02:14:58.643Z,79.00
2018-05-11T02:17:26.092Z,80.00
2018-05-11T02:19:53.553Z,80.10
2018-05-11T02:22:20.999Z,80.20
2018-05-11T02:24:48.469Z,80.20
2018-05-11T02:27:15.927Z,80.20
2018-05-11T02:29:43.373Z,80.40
2018-05-11T02:32:10.822Z,80.30
2018-05-11T02:34:38.291Z,80.40
2018-05-11T02:37:05.752Z,80.40
2018-05-11T02:39:33.186Z,80.40
2018-05-11T02:42:01.402Z,80.30
2018-05-11T02:44:28.858Z,80.30
2018-05-11T02:46:56.309Z,80.30
2018-05-11T02:49:23.770Z,80.40
2018-05-11T02:51:51.566Z,80.40
2018-05-11T02:54:18.978Z,80.50
2018-05-11T02:56:46.438Z,80.50
2018-05-11T02:59:13.888Z,80.40
2018-05-11T03:01:41.337Z,80.40
2018-05-11T03:04:08.781Z,80.40
2018-05-11T03:06:36.233Z,80.40
2018-05-11T03:09:04.443Z,80.40
2018-05-11T03:11:31.898Z,80.40
2018-05-11T03:13:59.401Z,80.70
2018-05-11T03:16:26.883Z,80.30
2018-05-11T03:18:55.092Z,80.50
2018-05-11T03:21:22.545Z,80.40
2018-05-11T03:23:49.993Z,80.30
2018-05-11T03:26:17.436Z,80.60
2018-05-11T03:28:44.884Z,80.70
2018-05-11T03:31:13.111Z,80.50
2018-05-11T03:33:40.546Z,80.50
2018-05-11T03:36:08.012Z,80.40
2018-05-11T03:38:35.458Z,80.20
2018-05-11T03:41:02.909Z,80.40
2018-05-11T03:43:30.365Z,80.50
2018-05-11T03:45:57.805Z,80.30
2018-05-11T03:48:25.262Z,80.20
2018-05-11T03:50:52.724Z,80.20
2018-05-11T03:53:21.023Z,80.10
2018-05-11T03:55:48.481Z,80.10
2018-05-11T03:58:15.931Z,81.00
2018-05-11T04:00:43.374Z,80.50
2018-05-11T04:03:22.710Z,80.30
2018-05-11T04:09:02.693Z,79.00
2018-05-11T04:11:30.154Z,78.90
2018-05-11T04:13:57.598Z,78.70
2018-05-11T04:16:25.034Z,78.60
2018-05-11T04:18:53.266Z,78.10
2018-05-11T04:21:20.717Z,78.00
2018-05-11T04:23:48.181Z,77.80
2018-05-11T04:26:15.634Z,78.00
2018-05-11T04:28:43.854Z,78.20
2018-05-11T04:31:12.080Z,77.80
2018-05-11T04:33:39.556Z,77.70
2018-05-11T04:36:07.010Z,77.70
2018-05-11T04:38:34.449Z,77.40
2018-05-11T04:41:01.909Z,77.50
2018-05-11T04:43:29.349Z,77.50
2018-05-11T04:45:56.845Z,77.60
2018-05-11T04:48:24.278Z,77.10
2018-05-11T04:50:51.738Z,77.20
2018-05-11T04:53:19.274Z,77.10
2018-05-11T04:55:46.717Z,76.80
2018-05-11T04:58:14.170Z,76.50
2018-05-11T05:00:42.400Z,76.20
2018-05-11T05:03:10.623Z,76.50
2018-05-11T05:05:38.070Z,76.10
2018-05-11T05:08:06.282Z,76.60
2018-05-11T05:10:33.722Z,76.50
2018-05-11T05:13:01.166Z,76.50
2018-05-11T05:15:29.392Z,76.50
2018-05-11T05:17:56.845Z,76.40
2018-05-11T05:20:24.292Z,76.70
2018-05-11T05:22:51.754Z,76.60
2018-05-11T05:25:19.201Z,76.70
2018-05-11T05:27:47.432Z,76.70
2018-05-11T05:30:14.867Z,76.60
2018-05-11T05:32:42.313Z,76.60
2018-05-11T05:35:09.767Z,76.50
2018-05-11T05:37:37.221Z,76.70
2018-05-11T05:40:05.444Z,77.50
2018-05-11T05:42:33.663Z,77.30
2018-05-11T05:45:01.094Z,77.30
2018-05-11T05:47:28.555Z,77.30
2018-05-11T05:49:55.994Z,77.20
2018-05-11T05:52:23.442Z,77.10
2018-05-11T05:54:50.893Z,77.20
2018-05-11T05:57:19.108Z,77.10
2018-05-11T05:59:46.560Z,77.00
2018-05-11T06:02:14.007Z,77.30
2018-05-11T06:04:41.508Z,77.40
2018-05-11T06:07:09.642Z,76.90
2018-05-11T06:09:37.092Z,76.90
2018-05-11T06:12:04.551Z,76.70
2018-05-11T06:14:31.985Z,76.50
2018-05-11T06:16:59.435Z,76.10
2018-05-11T06:19:26.869Z,76.10
2018-05-11T06:21:54.406Z,76.30
2018-05-11T06:24:22.554Z,76.00
2018-05-11T06:26:50.008Z,75.90
2018-05-11T06:29:17.453Z,75.60
2018-05-11T06:31:44.901Z,75.90
2018-05-11T06:34:13.118Z,75.60
2018-05-11T06:36:40.610Z,75.60
2018-05-11T06:39:08.044Z,75.60
2018-05-11T06:41:36.258Z,75.80
2018-05-11T06:44:04.482Z,75.10
2018-05-11T06:46:31.945Z,75.00
2018-05-11T06:48:59.394Z,74.60
2018-05-11T06:51:26.857Z,74.60
2018-05-11T06:53:54.438Z,74.60
2018-05-11T06:56:21.889Z,75.00
2018-05-11T06:58:49.345Z,75.20
2018-05-11T07:01:16.789Z,74.80
2018-05-11T07:03:44.241Z,75.10
2018-05-11T07:06:11.716Z,74.50
2018-05-11T07:08:39.177Z,73.90
2018-05-11T07:11:06.635Z,73.80
2018-05-11T07:13:34.077Z,72.20
2018-05-11T07:16:01.538Z,71.40
2018-05-11T07:18:28.993Z,70.30
2018-05-11T07:20:56.433Z,71.60
2018-05-11T07:23:23.895Z,72.00
2018-05-11T07:25:51.349Z,72.50
2018-05-11T07:28:18.788Z,71.90
2018-05-11T07:30:46.218Z,71.50
2018-05-11T07:33:13.684Z,70.40
2018-05-11T07:35:41.148Z,70.20
2018-05-11T07:38:08.600Z,69.70
2018-05-11T07:40:36.049Z,69.30
2018-05-11T07:43:04.299Z,69.80
2018-05-11T07:45:31.714Z,69.70
2018-05-11T07:47:59.153Z,69.80
2018-05-11T07:50:26.596Z,70.00
2018-05-11T07:52:54.805Z,69.60
2018-05-11T07:55:22.241Z,69.60
2018-05-11T07:57:49.705Z,69.50
2018-05-11T08:00:17.142Z,69.60
2018-05-11T08:02:44.594Z,69.60
2018-05-11T08:05:12.825Z,67.60
2018-05-11T08:07:40.310Z,67.50
2018-05-11T08:10:07.757Z,67.90
2018-05-11T08:12:35.217Z,67.20
2018-05-11T08:15:02.656Z,67.40
2018-05-11T08:17:31.606Z,66.20
2018-05-11T08:19:59.075Z,66.20
2018-05-11T08:22:26.525Z,66.30
2018-05-11T08:24:53.971Z,65.60
2018-05-11T08:27:21.405Z,65.40
2018-05-11T08:29:48.847Z,64.90
2018-05-11T08:32:17.065Z,66.30
2018-05-11T08:34:45.135Z,66.00
2018-05-11T08:37:12.593Z,65.90
2018-05-11T08:39:40.044Z,65.40
2018-05-11T08:42:07.480Z,65.80
2018-05-11T08:44:35.698Z,65.00
2018-05-11T08:47:03.155Z,64.90
2018-05-11T08:49:31.377Z,66.70
2018-05-11T08:51:59.719Z,66.60
2018-05-11T08:54:27.065Z,66.50
2018-05-11T08:56:54.507Z,66.70
2018-05-11T08:59:21.976Z,66.70
2018-05-11T09:01:49.409Z,66.30
2018-05-11T09:04:16.867Z,65.60
2018-05-11T09:06:44.312Z,64.50
2018-05-11T09:09:11.762Z,64.00
2018-05-11T09:11:39.965Z,63.50
2018-05-11T09:14:07.424Z,63.40
2018-05-11T09:16:34.869Z,62.50
2018-05-11T09:19:02.353Z,62.60
2018-05-11T09:21:29.875Z,62.90
2018-05-11T09:23:57.255Z,63.90
2018-05-11T09:26:24.697Z,64.60
2018-05-11T09:28:52.153Z,64.60
2018-05-11T09:31:19.621Z,64.40
2018-05-11T09:33:47.073Z,63.40
2018-05-11T09:36:14.521Z,62.80
2018-05-11T09:38:41.980Z,61.80
2018-05-11T09:41:09.441Z,61.80
2018-05-11T09:43:36.881Z,61.30
2018-05-11T09:46:04.328Z,61.50
2018-05-11T09:48:32.552Z,60.70
2018-05-11T09:50:59.995Z,60.70
2018-05-11T09:53:27.499Z,61.20
2018-05-11T09:55:54.942Z,60.40
2018-05-11T09:58:22.394Z,58.80
2018-05-11T10:00:49.890Z,57.60
2018-05-11T10:03:17.350Z,57.40
2018-05-11T10:05:45.585Z,56.40
2018-05-11T10:08:13.035Z,56.40
2018-05-11T10:10:40.512Z,57.00
2018-05-11T10:13:07.961Z,57.50
2018-05-11T10:15:35.458Z,57.70
2018-05-11T10:18:03.660Z,58.50
2018-05-11T10:20:31.881Z,57.30
2018-05-11T10:22:59.311Z,57.30
2018-05-11T10:25:26.769Z,58.30
2018-05-11T10:27:54.201Z,58.00
2018-05-11T10:30:21.655Z,57.30
2018-05-11T10:32:49.098Z,56.70
2018-05-11T10:35:16.553Z,56.60
2018-05-11T10:37:43.988Z,56.70
2018-05-11T10:40:12.197Z,55.60
2018-05-11T10:42:39.665Z,55.60
2018-05-11T10:45:07.135Z,56.20
2018-05-11T10:47:34.574Z,56.70
2018-05-11T10:50:02.080Z,56.40
2018-05-11T10:52:29.510Z,56.10
2018-05-11T10:54:56.983Z,56.30
2018-05-11T10:57:25.173Z,55.40
2018-05-11T10:59:53.381Z,55.60
2018-05-11T11:02:20.964Z,55.60
2018-05-11T11:04:48.322Z,56.50
2018-05-11T11:07:15.765Z,54.70
2018-05-11T11:09:43.229Z,55.00
2018-05-11T11:12:10.683Z,55.40
2018-05-11T11:14:38.131Z,56.20
2018-05-11T11:17:05.566Z,55.50
2018-05-11T11:19:33.005Z,55.80
2018-05-11T11:22:01.215Z,55.30
2018-05-11T11:24:28.650Z,55.30
2018-05-11T11:26:56.091Z,54.90
2018-05-11T11:29:24.313Z,54.40
2018-05-11T11:31:52.521Z,54.20
2018-05-11T11:34:20.011Z,54.10
2018-05-11T11:36:47.418Z,55.30
2018-05-11T11:39:14.915Z,53.60
2018-05-11T11:41:42.361Z,53.00
2018-05-11T11:44:13.049Z,54.30
2018-05-11T11:46:40.494Z,54.50
2018-05-11T11:49:07.949Z,54.20
2018-05-11T11:51:35.387Z,53.50
2018-05-11T11:54:02.843Z,53.50
2018-05-11T11:56:30.378Z,51.90
2018-05-11T11:58:58.506Z,50.50
2018-05-11T12:01:26.042Z,50.40
2018-05-11T12:03:53.482Z,50.90
2018-05-11T12:06:21.714Z,51.10
2018-05-11T12:08:49.256Z,51.00
2018-05-11T12:11:16.689Z,53.20
2018-05-11T12:13:44.129Z,52.30
2018-05-11T12:16:11.574Z,53.00
2018-05-11T12:18:39.775Z,51.80
2018-05-11T12:21:07.230Z,51.80
2018-05-11T12:23:34.665Z,54.00
2018-05-11T12:26:02.881Z,51.90
2018-05-11T12:28:30.323Z,51.90
2018-05-11T12:30:57.818Z,52.40
2018-05-11T12:33:25.294Z,51.80
2018-05-11T12:35:52.758Z,50.20
2018-05-11T12:38:20.204Z,49.90
2018-05-11T12:40:48.436Z,51.20
2018-05-11T12:43:15.872Z,51.20
2018-05-11T12:45:43.327Z,50.70
2018-05-11T12:48:11.516Z,49.90
2018-05-11T12:50:38.966Z,49.90
2018-05-11T12:53:06.405Z,49.40
2018-05-11T12:55:34.691Z,49.50
2018-05-11T12:58:02.145Z,49.40
2018-05-11T13:00:30.403Z,50.30
2018-05-11T13:02:57.837Z,50.20
2018-05-11T13:05:25.300Z,49.70
2018-05-11T13:07:52.739Z,49.10
2018-05-11T13:10:20.972Z,47.00
2018-05-11T13:12:48.469Z,47.00
2018-05-11T13:15:15.877Z,48.40
2018-05-11T13:17:43.362Z,48.10
2018-05-11T13:20:10.806Z,48.30
2018-05-11T13:22:38.253Z,47.60
2018-05-11T13:25:05.710Z,47.30
2018-05-11T13:27:33.420Z,47.80
2018-05-11T13:30:00.878Z,47.90
2018-05-11T13:32:28.329Z,47.30
2018-05-11T13:34:55.763Z,46.40
2018-05-11T13:37:23.216Z,46.20
2018-05-11T13:39:50.655Z,47.30
2018-05-11T13:42:18.096Z,48.00
2018-05-11T13:44:46.303Z,47.00
2018-05-11T13:47:13.753Z,47.00
2018-05-11T13:49:41.205Z,45.10
2018-05-11T13:52:08.671Z,44.50
2018-05-11T13:54:36.103Z,43.40
2018-05-11T13:57:04.414Z,44.20
2018-05-11T13:59:31.859Z,44.10
2018-05-11T14:01:59.318Z,43.20
2018-05-11T14:04:26.766Z,43.80
2018-05-11T14:06:54.217Z,42.90
2018-05-11T14:09:21.656Z,42.80
2018-05-11T14:11:49.865Z,42.70
2018-05-11T14:14:17.302Z,42.60
2018-05-11T14:16:44.745Z,41.60
2018-05-11T14:19:12.993Z,41.20
2018-05-11T14:21:40.450Z,41.20
2018-05-11T14:24:07.902Z,43.80
2018-05-11T14:26:35.343Z,42.00
2018-05-11T14:29:02.777Z,40.50
2018-05-11T14:31:30.270Z,42.10
2018-05-11T14:33:57.702Z,40.00
2018-05-11T14:36:25.154Z,42.10
2018-05-11T14:38:52.626Z,42.10
2018-05-11T14:41:20.061Z,41.60
2018-05-11T14:43:47.502Z,41.20
2018-05-11T14:46:14.965Z,40.10
2018-05-11T14:48:42.412Z,39.00
2018-05-11T14:51:09.851Z,40.40
2018-05-11T14:53:38.059Z,39.70
2018-05-11T14:56:05.824Z,39.70
2018-05-11T14:58:33.269Z,40.90
2018-05-11T15:01:00.713Z,40.90
2018-05-11T15:03:28.934Z,40.00
2018-05-11T15:05:57.153Z,40.00
2018-05-11T15:08:25.360Z,38.30
2018-05-11T15:10:52.830Z,38.20
2018-05-11T15:13:20.281Z,37.90
2018-05-11T15:15:47.713Z,36.80
2018-05-11T15:18:15.159Z,39.40
2018-05-11T15:20:43.353Z,38.40
2018-05-11T15:23:10.790Z,37.80
2018-05-11T15:25:38.981Z,38.50
2018-05-11T15:28:06.418Z,38.40
2018-05-11T15:30:34.627Z,37.40
2018-05-11T15:33:02.066Z,37.30
2018-05-11T15:35:29.506Z,36.90
2018-05-11T15:37:57.726Z,35.90
2018-05-11T15:40:25.233Z,35.90
2018-05-11T15:42:52.615Z,36.30
2018-05-11T15:45:20.053Z,35.90
2018-05-11T15:47:47.522Z,35.60
2018-05-11T15:50:15.702Z,37.00
2018-05-11T15:52:43.143Z,37.00
2018-05-11T15:55:10.577Z,34.20
2018-05-11T15:57:38.789Z,34.50
2018-05-11T16:00:06.217Z,34.50
2018-05-11T16:02:34.419Z,34.40
2018-05-11T16:05:01.851Z,34.40
2018-05-11T16:07:30.092Z,31.80
2018-05-11T16:09:57.579Z,31.60
2018-05-11T16:12:25.784Z,34.20
2018-05-11T16:14:53.224Z,34.20
2018-05-11T16:17:21.447Z,34.30
2018-05-11T16:19:48.892Z,34.30
2018-05-11T16:22:16.325Z,33.90
2018-05-11T16:24:43.761Z,34.70
2018-05-11T16:27:11.954Z,34.30
2018-05-11T16:29:39.389Z,34.20
2018-05-11T16:32:07.592Z,33.20
2018-05-11T16:34:35.046Z,33.10
2018-05-11T16:37:02.494Z,33.80
2018-05-11T16:39:29.950Z,34.20
2018-05-11T16:41:58.143Z,34.60
2018-05-11T16:44:25.590Z,34.60
2018-05-11T16:46:53.033Z,35.30
2018-05-11T16:49:20.477Z,34.60
2018-05-11T16:51:48.685Z,33.80
2018-05-11T16:54:16.165Z,34.50
2018-05-11T16:56:43.628Z,35.50
2018-05-11T16:59:11.877Z,35.90
2018-05-11T17:01:39.367Z,36.60
2018-05-11T17:04:06.856Z,36.60
2018-05-11T17:06:35.056Z,35.50
2018-05-11T17:09:02.505Z,35.50
2018-05-11T17:11:29.939Z,35.50
2018-05-11T17:13:57.782Z,35.30
2018-05-11T17:16:25.295Z,34.60
2018-05-11T17:18:52.727Z,34.80
2018-05-11T17:21:20.916Z,34.20
2018-05-11T17:23:48.365Z,34.20
2018-05-11T17:26:15.832Z,34.10
2018-05-11T17:28:43.395Z,34.80
2018-05-11T17:31:10.850Z,35.90
2018-05-11T17:33:38.284Z,37.00
2018-05-11T17:36:06.533Z,39.00
2018-05-11T17:38:34.017Z,38.90
2018-05-11T17:41:02.207Z,37.30
2018-05-11T17:43:29.653Z,37.30
2018-05-11T17:45:57.865Z,37.60
2018-05-11T17:48:25.317Z,37.60
2018-05-11T17:50:52.743Z,37.50
2018-05-11T17:53:20.195Z,37.80
2018-05-11T17:55:48.421Z,37.00
2018-05-11T17:58:15.879Z,37.00
2018-05-11T18:00:43.344Z,38.00
2018-05-11T18:03:10.838Z,38.50
2018-05-11T18:05:38.252Z,38.30
2018-05-11T18:08:05.733Z,37.30
2018-05-11T18:10:33.175Z,37.60
2018-05-11T18:13:00.630Z,38.00
2018-05-11T18:15:28.066Z,37.60
2018-05-11T18:17:55.514Z,38.60
2018-05-11T18:20:22.958Z,39.60
2018-05-11T18:22:50.418Z,39.90
2018-05-11T18:25:17.870Z,40.80
2018-05-11T18:27:45.317Z,40.60
2018-05-11T18:30:12.757Z,41.10
2018-05-11T18:32:40.953Z,42.10
2018-05-11T18:35:08.401Z,42.00
2018-05-11T18:37:35.845Z,42.90
2018-05-11T18:40:04.083Z,43.80
2018-05-11T18:42:31.525Z,43.90
2018-05-11T18:44:58.989Z,44.30
2018-05-11T18:47:26.457Z,44.60
2018-05-11T18:49:53.913Z,45.20
2018-05-11T18:52:21.376Z,45.00
2018-05-11T18:54:48.833Z,45.50
2018-05-11T18:57:16.379Z,46.10
2018-05-11T18:59:43.861Z,46.20
2018-05-11T19:02:11.301Z,46.60
2018-05-11T19:04:38.794Z,46.50
2018-05-11T19:07:06.998Z,46.00
2018-05-11T19:09:34.453Z,46.00
2018-05-11T19:12:01.895Z,46.60
2018-05-11T19:14:29.356Z,47.00
2018-05-11T19:16:56.818Z,47.10
2018-05-11T19:19:24.247Z,46.90
2018-05-11T19:21:52.454Z,47.40
2018-05-11T19:24:19.947Z,47.40
2018-05-11T19:26:47.382Z,47.80
2018-05-11T19:29:14.825Z,47.60
2018-05-11T19:31:42.286Z,47.90
2018-05-11T19:34:09.743Z,47.70
2018-05-11T19:36:37.170Z,48.20
2018-05-11T19:39:06.336Z,48.00
2018-05-11T19:41:33.798Z,47.90
2018-05-11T19:44:01.268Z,48.50
2018-05-11T19:46:29.475Z,48.80
2018-05-11T19:48:56.919Z,48.80
2018-05-11T19:51:25.211Z,49.40
2018-05-11T19:53:52.646Z,49.40
2018-05-11T19:56:20.077Z,50.00
2018-05-11T19:58:47.534Z,50.00
2018-05-11T20:01:14.973Z,51.10
2018-05-11T20:03:42.464Z,50.60
2018-05-11T20:06:10.681Z,51.20
2018-05-11T20:08:38.238Z,51.20
2018-05-11T20:11:05.716Z,51.10
2018-05-11T20:13:33.183Z,51.70
2018-05-11T20:16:00.633Z,51.50
2018-05-11T20:18:28.088Z,51.70
2018-05-11T20:20:55.542Z,52.50
2018-05-11T20:23:22.989Z,51.80
2018-05-11T20:25:50.432Z,52.20
2018-05-11T20:28:17.884Z,53.00
2018-05-11T20:30:45.323Z,52.90
2018-05-11T20:33:12.778Z,53.20
2018-05-11T20:35:41.038Z,53.80
2018-05-11T20:38:09.242Z,53.80
2018-05-11T20:40:36.682Z,53.80
2018-05-11T20:43:04.117Z,54.10
2018-05-11T20:45:32.333Z,54.20
2018-05-11T20:47:59.769Z,54.00
2018-05-11T20:50:27.992Z,54.50
2018-05-11T20:52:55.446Z,54.40
2018-05-11T20:55:22.881Z,54.70
2018-05-11T20:57:50.330Z,54.70
2018-05-11T21:00:17.874Z,54.80
2018-05-11T21:02:46.136Z,55.20
2018-05-11T21:05:14.375Z,55.10
2018-05-11T21:07:41.813Z,55.00
2018-05-11T21:10:09.272Z,55.20
2018-05-11T21:12:36.706Z,55.80
2018-05-11T21:15:04.167Z,55.50
2018-05-11T21:17:31.608Z,55.80
2018-05-11T21:19:59.115Z,55.90
2018-05-11T21:22:26.540Z,56.00
2018-05-11T21:24:53.986Z,56.40
2018-05-11T21:27:21.438Z,56.40
2018-05-11T21:29:48.909Z,56.40
2018-05-11T21:32:16.356Z,56.50
2018-05-11T21:34:43.809Z,56.60
2018-05-11T21:37:11.254Z,56.70
2018-05-11T21:39:39.459Z,57.30
2018-05-11T21:42:06.964Z,57.30
2018-05-11T21:44:34.431Z,58.00
2018-05-11T21:47:02.640Z,57.90
2018-05-11T21:49:30.102Z,57.90
2018-05-11T21:51:57.565Z,58.00
2018-05-11T21:54:25.016Z,58.30
2018-05-11T21:56:52.465Z,58.50
2018-05-11T21:59:19.919Z,58.80
2018-05-11T22:01:47.413Z,59.00
2018-05-11T22:04:14.962Z,59.40
2018-05-11T22:06:42.348Z,59.60
2018-05-11T22:09:09.785Z,59.60
2018-05-11T22:11:37.243Z,59.70
2018-05-11T22:14:04.682Z,60.20
2018-05-11T22:16:32.136Z,60.30
2018-05-11T22:18:59.600Z,60.80
2018-05-11T22:21:27.096Z,60.60
2018-05-11T22:23:54.514Z,60.50
2018-05-11T22:26:21.965Z,60.90
2018-05-11T22:28:49.413Z,61.30
2018-05-11T22:31:16.882Z,61.40
2018-05-11T22:33:44.331Z,61.80
2018-05-11T22:36:11.788Z,61.90
2018-05-11T22:38:39.223Z,62.10
2018-05-11T22:41:06.675Z,62.10
2018-05-11T22:43:34.153Z,62.40
2018-05-11T22:46:01.612Z,62.70
2018-05-11T22:48:29.055Z,62.60
2018-05-11T22:50:56.518Z,62.90
2018-05-11T22:53:23.956Z,62.80
2018-05-11T22:55:51.399Z,62.90
2018-05-11T22:58:19.612Z,63.80
2018-05-11T23:00:47.064Z,63.00
2018-05-11T23:03:14.514Z,62.90
2018-05-11T23:05:41.987Z,63.20
2018-05-11T23:08:09.441Z,63.40
2018-05-11T23:10:37.682Z,63.30
2018-05-11T23:13:05.975Z,63.30
2018-05-11T23:15:33.456Z,63.20
2018-05-11T23:18:00.900Z,63.60
2018-05-11T23:20:28.357Z,63.50
2018-05-11T23:22:55.829Z,63.80
2018-05-11T23:25:23.388Z,64.20
2018-05-11T23:27:50.963Z,63.90
2018-05-11T23:30:18.316Z,63.90
2018-05-11T23:32:45.776Z,64.00
2018-05-11T23:35:13.270Z,64.00
2018-05-11T23:37:41.488Z,63.90
2018-05-11T23:40:08.936Z,63.90
2018-05-11T23:42:36.393Z,63.80
2018-05-11T23:45:03.853Z,64.00
2018-05-11T23:47:31.310Z,64.20
2018-05-11T23:49:58.762Z,64.20
2018-05-11T23:52:26.225Z,64.30
2018-05-11T23:54:53.668Z,64.60
2018-05-11T23:57:21.117Z,65.10
2018-05-11T23:59:48.600Z,65.00
